sensor_id;sensor_type;location;lat;lon;timestamp;temperature;humidity
34099;DHT22;20374;49.474;10.944;2022-09-03T00:01:22;13.90;99.90
34099;DHT22;20374;49.474;10.944;2022-09-03T00:06:47;13.70;99.90
34099;DHT22;20374;49.474;10.944;2022-09-03T00:09:27;13.70;99.90
34099;DHT22;20374;49.474;10.944;2022-09-03T00:12:17;13.80;99.90
34099;DHT22;20374;49.474;10.944;2022-09-03T00:15:17;13.80;99.90
34099;DHT22;20374;49.474;10.944;2022-09-03T00:18:06;13.70;99.90
34099;DHT22;20374;49.474;10.944;2022-09-03T00:20:44;13.60;99.90
34099;DHT22;20374;49.474;10.944;2022-09-03T00:23:20;13.40;99.90
34099;DHT22;20374;49.474;10.944;2022-09-03T00:25:58;13.30;99.90
34099;DHT22;20374;49.474;10.944;2022-09-03T00:28:30;13.30;99.90
34099;DHT22;20374;49.474;10.944;2022-09-03T00:31:15;13.40;99.90
34099;DHT22;20374;49.474;10.944;2022-09-03T00:33:45;13.40;99.90
34099;DHT22;20374;49.474;10.944;2022-09-03T00:36:17;13.40;99.90
34099;DHT22;20374;49.474;10.944;2022-09-03T00:38:44;13.40;99.90
34099;DHT22;20374;49.474;10.944;2022-09-03T00:41:23;13.40;99.90
34099;DHT22;20374;49.474;10.944;2022-09-03T00:46:46;13.40;99.90
34099;DHT22;20374;49.474;10.944;2022-09-03T00:54:45;13.20;99.90
34099;DHT22;20374;49.474;10.944;2022-09-03T01:02:56;12.90;99.90
34099;DHT22;20374;49.474;10.944;2022-09-03T01:16:35;13.00;99.90
34099;DHT22;20374;49.474;10.944;2022-09-03T01:31:51;12.60;99.90
34099;DHT22;20374;49.474;10.944;2022-09-03T01:37:04;12.70;99.90
34099;DHT22;20374;49.474;10.944;2022-09-03T01:39:54;12.80;99.90
34099;DHT22;20374;49.474;10.944;2022-09-03T01:48:20;12.50;99.90
34099;DHT22;20374;49.474;10.944;2022-09-03T01:59:36;12.60;99.90
34099;DHT22;20374;49.474;10.944;2022-09-03T02:02:08;12.60;99.90
34099;DHT22;20374;49.474;10.944;2022-09-03T02:04:35;12.60;99.90
34099;DHT22;20374;49.474;10.944;2022-09-03T02:07:02;12.60;99.90
34099;DHT22;20374;49.474;10.944;2022-09-03T02:09:28;12.50;99.90
34099;DHT22;20374;49.474;10.944;2022-09-03T02:14:28;12.50;99.90
34099;DHT22;20374;49.474;10.944;2022-09-03T02:16:57;12.40;99.90
34099;DHT22;20374;49.474;10.944;2022-09-03T02:19:26;12.30;99.90
34099;DHT22;20374;49.474;10.944;2022-09-03T02:21:55;12.20;99.90
34099;DHT22;20374;49.474;10.944;2022-09-03T02:24:23;12.10;99.90
34099;DHT22;20374;49.474;10.944;2022-09-03T02:26:49;12.10;99.90
34099;DHT22;20374;49.474;10.944;2022-09-03T02:29:16;12.00;99.90
34099;DHT22;20374;49.474;10.944;2022-09-03T02:31:43;11.90;99.90
34099;DHT22;20374;49.474;10.944;2022-09-03T02:34:09;12.10;99.90
34099;DHT22;20374;49.474;10.944;2022-09-03T02:36:41;12.10;99.90
34099;DHT22;20374;49.474;10.944;2022-09-03T02:39:08;12.30;99.90
34099;DHT22;20374;49.474;10.944;2022-09-03T02:41:34;12.20;99.90
34099;DHT22;20374;49.474;10.944;2022-09-03T02:44:05;12.10;99.90
34099;DHT22;20374;49.474;10.944;2022-09-03T02:46:43;12.10;99.90
34099;DHT22;20374;49.474;10.944;2022-09-03T02:49:10;12.00;99.90
34099;DHT22;20374;49.474;10.944;2022-09-03T02:51:40;12.00;99.90
34099;DHT22;20374;49.474;10.944;2022-09-03T02:54:08;12.00;99.90
34099;DHT22;20374;49.474;10.944;2022-09-03T02:56:36;12.00;99.90
34099;DHT22;20374;49.474;10.944;2022-09-03T02:59:04;11.90;99.90
34099;DHT22;20374;49.474;10.944;2022-09-03T03:01:31;11.90;99.90
34099;DHT22;20374;49.474;10.944;2022-09-03T03:03:57;11.90;99.90
34099;DHT22;20374;49.474;10.944;2022-09-03T03:06:23;11.90;99.90
34099;DHT22;20374;49.474;10.944;2022-09-03T03:08:49;11.90;99.90
34099;DHT22;20374;49.474;10.944;2022-09-03T03:11:17;12.00;99.90
34099;DHT22;20374;49.474;10.944;2022-09-03T03:13:44;11.90;99.90
34099;DHT22;20374;49.474;10.944;2022-09-03T03:16:11;11.90;99.90
34099;DHT22;20374;49.474;10.944;2022-09-03T03:18:37;11.90;99.90
34099;DHT22;20374;49.474;10.944;2022-09-03T03:21:11;11.80;99.90
34099;DHT22;20374;49.474;10.944;2022-09-03T03:23:38;11.80;99.90
34099;DHT22;20374;49.474;10.944;2022-09-03T03:26:07;11.70;99.90
34099;DHT22;20374;49.474;10.944;2022-09-03T03:28:34;11.60;99.90
34099;DHT22;20374;49.474;10.944;2022-09-03T03:31:11;11.60;99.90
34099;DHT22;20374;49.474;10.944;2022-09-03T03:33:38;11.60;99.90
34099;DHT22;20374;49.474;10.944;2022-09-03T03:36:12;11.70;99.90
34099;DHT22;20374;49.474;10.944;2022-09-03T03:38:38;11.60;99.90
34099;DHT22;20374;49.474;10.944;2022-09-03T03:41:09;11.70;99.90
34099;DHT22;20374;49.474;10.944;2022-09-03T03:43:35;11.70;99.90
34099;DHT22;20374;49.474;10.944;2022-09-03T03:46:01;11.80;99.90
34099;DHT22;20374;49.474;10.944;2022-09-03T03:48:27;11.90;99.90
34099;DHT22;20374;49.474;10.944;2022-09-03T03:50:53;11.90;99.90
34099;DHT22;20374;49.474;10.944;2022-09-03T03:53:19;11.80;99.90
34099;DHT22;20374;49.474;10.944;2022-09-03T03:55:59;11.70;99.90
34099;DHT22;20374;49.474;10.944;2022-09-03T03:58:28;11.70;99.90
34099;DHT22;20374;49.474;10.944;2022-09-03T04:00:54;11.70;99.90
34099;DHT22;20374;49.474;10.944;2022-09-03T04:03:20;11.80;99.90
34099;DHT22;20374;49.474;10.944;2022-09-03T04:05:56;11.80;99.90
34099;DHT22;20374;49.474;10.944;2022-09-03T04:08:23;11.80;99.90
34099;DHT22;20374;49.474;10.944;2022-09-03T04:10:49;11.80;99.90
34099;DHT22;20374;49.474;10.944;2022-09-03T04:13:16;11.70;99.90
34099;DHT22;20374;49.474;10.944;2022-09-03T04:15:42;11.60;99.90
34099;DHT22;20374;49.474;10.944;2022-09-03T04:18:08;11.40;99.90
34099;DHT22;20374;49.474;10.944;2022-09-03T04:20:37;11.40;99.90
34099;DHT22;20374;49.474;10.944;2022-09-03T04:23:05;11.50;99.90
34099;DHT22;20374;49.474;10.944;2022-09-03T04:25:31;11.50;99.90
34099;DHT22;20374;49.474;10.944;2022-09-03T04:27:58;11.60;99.90
34099;DHT22;20374;49.474;10.944;2022-09-03T04:30:24;11.50;99.90
34099;DHT22;20374;49.474;10.944;2022-09-03T04:32:50;11.60;99.90
34099;DHT22;20374;49.474;10.944;2022-09-03T04:35:25;11.70;99.90
34099;DHT22;20374;49.474;10.944;2022-09-03T04:37:58;11.70;99.90
34099;DHT22;20374;49.474;10.944;2022-09-03T04:40:24;11.70;99.90
34099;DHT22;20374;49.474;10.944;2022-09-03T04:42:49;11.70;99.90
34099;DHT22;20374;49.474;10.944;2022-09-03T04:45:16;11.70;99.90
34099;DHT22;20374;49.474;10.944;2022-09-03T04:48:03;11.60;99.90
34099;DHT22;20374;49.474;10.944;2022-09-03T04:50:31;11.60;99.90
34099;DHT22;20374;49.474;10.944;2022-09-03T04:53:02;11.70;99.90
34099;DHT22;20374;49.474;10.944;2022-09-03T04:55:36;11.60;99.90
34099;DHT22;20374;49.474;10.944;2022-09-03T04:58:02;11.60;99.90
34099;DHT22;20374;49.474;10.944;2022-09-03T05:00:28;11.70;99.90
34099;DHT22;20374;49.474;10.944;2022-09-03T05:02:54;11.70;99.90
34099;DHT22;20374;49.474;10.944;2022-09-03T05:05:20;11.70;99.90
34099;DHT22;20374;49.474;10.944;2022-09-03T05:07:46;11.90;99.90
34099;DHT22;20374;49.474;10.944;2022-09-03T05:10:13;11.90;99.90
34099;DHT22;20374;49.474;10.944;2022-09-03T05:12:57;12.00;99.90
34099;DHT22;20374;49.474;10.944;2022-09-03T05:15:23;12.00;99.90
34099;DHT22;20374;49.474;10.944;2022-09-03T05:17:49;12.10;99.90
34099;DHT22;20374;49.474;10.944;2022-09-03T05:20:18;12.10;99.90
34099;DHT22;20374;49.474;10.944;2022-09-03T05:22:44;11.90;99.90
34099;DHT22;20374;49.474;10.944;2022-09-03T05:25:10;11.80;99.90
34099;DHT22;20374;49.474;10.944;2022-09-03T05:27:36;11.70;99.90
34099;DHT22;20374;49.474;10.944;2022-09-03T05:30:02;11.70;99.90
34099;DHT22;20374;49.474;10.944;2022-09-03T05:32:29;11.80;99.90
34099;DHT22;20374;49.474;10.944;2022-09-03T05:34:55;11.80;99.90
34099;DHT22;20374;49.474;10.944;2022-09-03T05:37:21;11.90;99.90
34099;DHT22;20374;49.474;10.944;2022-09-03T05:39:48;12.00;99.90
34099;DHT22;20374;49.474;10.944;2022-09-03T05:42:13;12.00;99.90
34099;DHT22;20374;49.474;10.944;2022-09-03T05:44:39;12.00;99.90
34099;DHT22;20374;49.474;10.944;2022-09-03T05:47:06;12.00;99.90
34099;DHT22;20374;49.474;10.944;2022-09-03T05:49:31;12.00;99.90
34099;DHT22;20374;49.474;10.944;2022-09-03T05:51:57;12.20;99.90
34099;DHT22;20374;49.474;10.944;2022-09-03T05:54:23;12.40;99.90
34099;DHT22;20374;49.474;10.944;2022-09-03T05:56:49;12.60;99.90
34099;DHT22;20374;49.474;10.944;2022-09-03T05:59:15;12.70;99.90
34099;DHT22;20374;49.474;10.944;2022-09-03T06:01:43;13.00;99.90
34099;DHT22;20374;49.474;10.944;2022-09-03T06:04:11;13.40;99.90
34099;DHT22;20374;49.474;10.944;2022-09-03T06:06:42;13.80;99.90
34099;DHT22;20374;49.474;10.944;2022-09-03T06:09:11;14.40;99.90
34099;DHT22;20374;49.474;10.944;2022-09-03T06:11:38;15.20;99.90
34099;DHT22;20374;49.474;10.944;2022-09-03T06:14:07;15.70;99.90
34099;DHT22;20374;49.474;10.944;2022-09-03T06:16:36;16.00;99.90
34099;DHT22;20374;49.474;10.944;2022-09-03T06:19:03;16.10;99.90
34099;DHT22;20374;49.474;10.944;2022-09-03T06:21:31;16.00;99.90
34099;DHT22;20374;49.474;10.944;2022-09-03T06:23:57;16.30;99.90
34099;DHT22;20374;49.474;10.944;2022-09-03T06:26:24;16.80;99.90
34099;DHT22;20374;49.474;10.944;2022-09-03T06:28:50;16.90;99.90
34099;DHT22;20374;49.474;10.944;2022-09-03T06:31:20;16.60;99.90
34099;DHT22;20374;49.474;10.944;2022-09-03T06:33:47;16.50;99.90
34099;DHT22;20374;49.474;10.944;2022-09-03T06:36:16;16.50;99.90
34099;DHT22;20374;49.474;10.944;2022-09-03T06:38:43;16.40;99.90
34099;DHT22;20374;49.474;10.944;2022-09-03T06:41:14;16.40;99.90
34099;DHT22;20374;49.474;10.944;2022-09-03T06:43:51;16.20;99.90
34099;DHT22;20374;49.474;10.944;2022-09-03T06:46:20;15.90;99.90
34099;DHT22;20374;49.474;10.944;2022-09-03T06:48:47;16.10;99.90
34099;DHT22;20374;49.474;10.944;2022-09-03T06:51:15;16.40;99.90
34099;DHT22;20374;49.474;10.944;2022-09-03T06:53:43;16.80;99.90
34099;DHT22;20374;49.474;10.944;2022-09-03T06:56:11;17.30;99.60
34099;DHT22;20374;49.474;10.944;2022-09-03T06:58:40;17.30;98.70
34099;DHT22;20374;49.474;10.944;2022-09-03T07:01:10;17.30;98.60
34099;DHT22;20374;49.474;10.944;2022-09-03T07:03:38;17.60;99.10
34099;DHT22;20374;49.474;10.944;2022-09-03T07:06:10;18.70;98.10
34099;DHT22;20374;49.474;10.944;2022-09-03T07:08:37;19.80;94.30
34099;DHT22;20374;49.474;10.944;2022-09-03T07:11:05;19.80;93.80
34099;DHT22;20374;49.474;10.944;2022-09-03T07:13:42;19.60;93.70
34099;DHT22;20374;49.474;10.944;2022-09-03T07:16:15;19.60;92.80
34099;DHT22;20374;49.474;10.944;2022-09-03T07:18:42;19.30;93.20
34099;DHT22;20374;49.474;10.944;2022-09-03T07:21:11;18.70;93.60
34099;DHT22;20374;49.474;10.944;2022-09-03T07:23:38;18.10;94.30
34099;DHT22;20374;49.474;10.944;2022-09-03T07:26:06;17.80;95.70
34099;DHT22;20374;49.474;10.944;2022-09-03T07:28:35;17.40;95.90
34099;DHT22;20374;49.474;10.944;2022-09-03T07:31:07;17.10;96.80
34099;DHT22;20374;49.474;10.944;2022-09-03T07:33:34;17.00;97.30
34099;DHT22;20374;49.474;10.944;2022-09-03T07:36:08;16.80;98.70
34099;DHT22;20374;49.474;10.944;2022-09-03T07:38:35;16.60;99.50
34099;DHT22;20374;49.474;10.944;2022-09-03T07:41:04;16.50;99.30
34099;DHT22;20374;49.474;10.944;2022-09-03T07:43:42;16.50;99.00
34099;DHT22;20374;49.474;10.944;2022-09-03T07:46:09;16.50;98.80
34099;DHT22;20374;49.474;10.944;2022-09-03T07:48:39;16.60;99.00
34099;DHT22;20374;49.474;10.944;2022-09-03T07:51:06;17.10;99.10
34099;DHT22;20374;49.474;10.944;2022-09-03T07:53:32;18.10;97.20
34099;DHT22;20374;49.474;10.944;2022-09-03T07:56:06;19.40;95.40
34099;DHT22;20374;49.474;10.944;2022-09-03T07:58:34;20.50;92.90
34099;DHT22;20374;49.474;10.944;2022-09-03T08:01:05;20.70;91.70
34099;DHT22;20374;49.474;10.944;2022-09-03T08:03:33;20.60;91.20
34099;DHT22;20374;49.474;10.944;2022-09-03T08:06:05;20.50;92.40
34099;DHT22;20374;49.474;10.944;2022-09-03T08:08:32;20.00;90.90
34099;DHT22;20374;49.474;10.944;2022-09-03T08:11:11;19.40;91.40
34099;DHT22;20374;49.474;10.944;2022-09-03T08:13:52;19.10;92.80
34099;DHT22;20374;49.474;10.944;2022-09-03T08:16:19;18.80;93.40
34099;DHT22;20374;49.474;10.944;2022-09-03T08:18:46;18.60;95.90
34099;DHT22;20374;49.474;10.944;2022-09-03T08:21:16;18.60;94.40
34099;DHT22;20374;49.474;10.944;2022-09-03T08:23:45;18.70;93.30
34099;DHT22;20374;49.474;10.944;2022-09-03T08:26:12;18.80;93.80
34099;DHT22;20374;49.474;10.944;2022-09-03T08:28:39;18.80;93.90
34099;DHT22;20374;49.474;10.944;2022-09-03T08:31:18;18.90;93.50
34099;DHT22;20374;49.474;10.944;2022-09-03T08:33:46;18.80;93.60
34099;DHT22;20374;49.474;10.944;2022-09-03T08:36:17;18.90;93.90
34099;DHT22;20374;49.474;10.944;2022-09-03T08:38:46;18.80;93.70
34099;DHT22;20374;49.474;10.944;2022-09-03T08:41:14;18.70;93.80
34099;DHT22;20374;49.474;10.944;2022-09-03T08:46:50;18.70;94.90
34099;DHT22;20374;49.474;10.944;2022-09-03T08:49:39;18.60;93.70
34099;DHT22;20374;49.474;10.944;2022-09-03T08:54:48;18.60;93.10
34099;DHT22;20374;49.474;10.944;2022-09-03T08:57:18;18.50;93.20
34099;DHT22;20374;49.474;10.944;2022-09-03T08:59:47;18.30;93.60
34099;DHT22;20374;49.474;10.944;2022-09-03T09:05:23;18.30;94.80
34099;DHT22;20374;49.474;10.944;2022-09-03T09:14:02;18.50;95.30
34099;DHT22;20374;49.474;10.944;2022-09-03T09:16:46;18.60;94.70
34099;DHT22;20374;49.474;10.944;2022-09-03T09:22:21;18.80;94.90
34099;DHT22;20374;49.474;10.944;2022-09-03T09:24:51;18.80;94.50
34099;DHT22;20374;49.474;10.944;2022-09-03T09:27:18;18.90;94.20
34099;DHT22;20374;49.474;10.944;2022-09-03T09:29:47;18.80;94.10
34099;DHT22;20374;49.474;10.944;2022-09-03T09:32:16;18.90;95.60
34099;DHT22;20374;49.474;10.944;2022-09-03T09:34:42;19.00;94.30
34099;DHT22;20374;49.474;10.944;2022-09-03T09:37:11;19.20;94.90
34099;DHT22;20374;49.474;10.944;2022-09-03T09:39:55;19.40;94.70
34099;DHT22;20374;49.474;10.944;2022-09-03T09:42:23;19.40;94.00
34099;DHT22;20374;49.474;10.944;2022-09-03T09:44:49;19.60;93.80
34099;DHT22;20374;49.474;10.944;2022-09-03T09:47:29;19.60;94.10
34099;DHT22;20374;49.474;10.944;2022-09-03T09:50:00;19.80;93.90
34099;DHT22;20374;49.474;10.944;2022-09-03T09:52:30;19.80;93.20
34099;DHT22;20374;49.474;10.944;2022-09-03T09:55:14;19.80;93.90
34099;DHT22;20374;49.474;10.944;2022-09-03T09:57:40;19.90;93.20
34099;DHT22;20374;49.474;10.944;2022-09-03T10:00:12;19.90;92.50
34099;DHT22;20374;49.474;10.944;2022-09-03T10:02:40;19.90;93.40
34099;DHT22;20374;49.474;10.944;2022-09-03T10:05:21;19.80;93.00
34099;DHT22;20374;49.474;10.944;2022-09-03T10:08:04;19.80;93.10
34099;DHT22;20374;49.474;10.944;2022-09-03T10:10:45;19.90;92.70
34099;DHT22;20374;49.474;10.944;2022-09-03T10:13:31;20.00;92.80
34099;DHT22;20374;49.474;10.944;2022-09-03T10:16:09;20.20;92.80
34099;DHT22;20374;49.474;10.944;2022-09-03T10:18:45;20.20;93.20
34099;DHT22;20374;49.474;10.944;2022-09-03T10:21:35;20.30;92.40
34099;DHT22;20374;49.474;10.944;2022-09-03T10:26:41;20.40;93.10
34099;DHT22;20374;49.474;10.944;2022-09-03T10:29:09;20.40;94.30
34099;DHT22;20374;49.474;10.944;2022-09-03T10:51:12;21.10;93.80
34099;DHT22;20374;49.474;10.944;2022-09-03T11:07:51;21.40;94.20
34099;DHT22;20374;49.474;10.944;2022-09-03T11:10:29;21.40;93.60
34099;DHT22;20374;49.474;10.944;2022-09-03T11:13:19;21.50;94.30
34099;DHT22;20374;49.474;10.944;2022-09-03T11:15:52;21.60;94.10
34099;DHT22;20374;49.474;10.944;2022-09-03T11:20:57;21.90;94.40
34099;DHT22;20374;49.474;10.944;2022-09-03T11:23:27;22.10;93.50
34099;DHT22;20374;49.474;10.944;2022-09-03T11:25:56;22.20;94.00
34099;DHT22;20374;49.474;10.944;2022-09-03T11:28:36;22.30;93.20
34099;DHT22;20374;49.474;10.944;2022-09-03T11:34:13;22.20;93.80
34099;DHT22;20374;49.474;10.944;2022-09-03T11:36:40;22.10;94.20
34099;DHT22;20374;49.474;10.944;2022-09-03T11:39:37;22.10;95.60
34099;DHT22;20374;49.474;10.944;2022-09-03T11:42:26;22.10;94.00
34099;DHT22;20374;49.474;10.944;2022-09-03T11:44:59;22.30;93.90
34099;DHT22;20374;49.474;10.944;2022-09-03T11:47:41;22.30;94.20
34099;DHT22;20374;49.474;10.944;2022-09-03T11:50:21;22.30;93.80
34099;DHT22;20374;49.474;10.944;2022-09-03T11:52:49;22.40;94.70
34099;DHT22;20374;49.474;10.944;2022-09-03T11:55:28;22.50;93.10
34099;DHT22;20374;49.474;10.944;2022-09-03T11:57:56;22.60;93.80
34099;DHT22;20374;49.474;10.944;2022-09-03T12:00:23;22.60;94.80
34099;DHT22;20374;49.474;10.944;2022-09-03T12:02:54;22.60;94.10
34099;DHT22;20374;49.474;10.944;2022-09-03T12:08:12;23.00;93.40
34099;DHT22;20374;49.474;10.944;2022-09-03T12:13:44;22.60;93.90
34099;DHT22;20374;49.474;10.944;2022-09-03T12:19:10;22.40;94.30
34099;DHT22;20374;49.474;10.944;2022-09-03T12:21:39;22.40;94.80
34099;DHT22;20374;49.474;10.944;2022-09-03T12:24:07;22.60;93.90
34099;DHT22;20374;49.474;10.944;2022-09-03T12:26:40;22.70;94.70
34099;DHT22;20374;49.474;10.944;2022-09-03T12:29:23;22.80;93.80
34099;DHT22;20374;49.474;10.944;2022-09-03T12:31:49;22.70;93.50
34099;DHT22;20374;49.474;10.944;2022-09-03T12:34:18;22.60;94.30
34099;DHT22;20374;49.474;10.944;2022-09-03T12:36:48;22.70;94.40
34099;DHT22;20374;49.474;10.944;2022-09-03T12:39:16;22.80;95.10
34099;DHT22;20374;49.474;10.944;2022-09-03T12:44:39;22.80;93.30
34099;DHT22;20374;49.474;10.944;2022-09-03T12:49:39;22.70;93.40
34099;DHT22;20374;49.474;10.944;2022-09-03T12:54:49;23.00;93.60
34099;DHT22;20374;49.474;10.944;2022-09-03T12:57:38;23.20;93.00
34099;DHT22;20374;49.474;10.944;2022-09-03T13:00:08;23.20;93.20
34099;DHT22;20374;49.474;10.944;2022-09-03T13:02:52;23.30;93.20
34099;DHT22;20374;49.474;10.944;2022-09-03T13:05:34;23.10;93.30
34099;DHT22;20374;49.474;10.944;2022-09-03T13:08:02;23.20;93.70
34099;DHT22;20374;49.474;10.944;2022-09-03T13:10:34;23.10;93.70
34099;DHT22;20374;49.474;10.944;2022-09-03T13:13:20;23.00;93.70
34099;DHT22;20374;49.474;10.944;2022-09-03T13:29:46;22.40;94.10
34099;DHT22;20374;49.474;10.944;2022-09-03T13:37:44;22.40;94.90
34099;DHT22;20374;49.474;10.944;2022-09-03T13:40:26;22.30;95.80
34099;DHT22;20374;49.474;10.944;2022-09-03T13:43:10;22.40;94.60
34099;DHT22;20374;49.474;10.944;2022-09-03T13:45:49;22.40;95.00
34099;DHT22;20374;49.474;10.944;2022-09-03T13:48:25;22.50;95.00
34099;DHT22;20374;49.474;10.944;2022-09-03T13:53:53;22.60;94.60
34099;DHT22;20374;49.474;10.944;2022-09-03T13:58:56;22.60;95.00
34099;DHT22;20374;49.474;10.944;2022-09-03T14:04:01;22.60;94.50
34099;DHT22;20374;49.474;10.944;2022-09-03T14:06:43;22.60;94.60
34099;DHT22;20374;49.474;10.944;2022-09-03T14:09:17;22.50;95.90
34099;DHT22;20374;49.474;10.944;2022-09-03T14:20:30;22.40;95.50
34099;DHT22;20374;49.474;10.944;2022-09-03T14:25:54;22.60;94.70
34099;DHT22;20374;49.474;10.944;2022-09-03T14:28:42;22.50;95.50
34099;DHT22;20374;49.474;10.944;2022-09-03T14:34:18;22.50;94.90
34099;DHT22;20374;49.474;10.944;2022-09-03T14:39:33;22.50;95.30
34099;DHT22;20374;49.474;10.944;2022-09-03T14:56:43;22.30;97.20
34099;DHT22;20374;49.474;10.944;2022-09-03T15:01:42;22.10;97.20
34099;DHT22;20374;49.474;10.944;2022-09-03T15:14:45;21.90;97.30
34099;DHT22;20374;49.474;10.944;2022-09-03T15:20:29;22.00;97.60
34099;DHT22;20374;49.474;10.944;2022-09-03T15:23:22;21.80;97.80
34099;DHT22;20374;49.474;10.944;2022-09-03T15:26:29;21.80;97.70
34099;DHT22;20374;49.474;10.944;2022-09-03T15:34:47;21.50;99.00
34099;DHT22;20374;49.474;10.944;2022-09-03T15:40:07;21.40;99.30
34099;DHT22;20374;49.474;10.944;2022-09-03T15:42:35;21.40;99.60
34099;DHT22;20374;49.474;10.944;2022-09-03T15:45:06;21.40;99.60
34099;DHT22;20374;49.474;10.944;2022-09-03T15:55:48;21.10;99.90
34099;DHT22;20374;49.474;10.944;2022-09-03T15:58:33;21.10;99.90
34099;DHT22;20374;49.474;10.944;2022-09-03T16:07:17;20.20;99.90
34099;DHT22;20374;49.474;10.944;2022-09-03T16:17:38;17.50;99.90
34099;DHT22;20374;49.474;10.944;2022-09-03T16:22:48;17.10;99.90
34099;DHT22;20374;49.474;10.944;2022-09-03T16:28:06;16.90;99.90
34099;DHT22;20374;49.474;10.944;2022-09-03T16:46:52;16.90;99.90
34099;DHT22;20374;49.474;10.944;2022-09-03T16:49:39;16.90;99.90
34099;DHT22;20374;49.474;10.944;2022-09-03T16:52:44;17.00;99.90
34099;DHT22;20374;49.474;10.944;2022-09-03T16:55:22;17.00;99.90
34099;DHT22;20374;49.474;10.944;2022-09-03T17:01:02;16.90;99.90
34099;DHT22;20374;49.474;10.944;2022-09-03T17:06:41;16.90;99.90
34099;DHT22;20374;49.474;10.944;2022-09-03T17:09:26;16.80;99.90
34099;DHT22;20374;49.474;10.944;2022-09-03T17:23:41;16.80;99.90
34099;DHT22;20374;49.474;10.944;2022-09-03T17:26:24;16.80;99.90
34099;DHT22;20374;49.474;10.944;2022-09-03T17:32:21;16.70;99.90
34099;DHT22;20374;49.474;10.944;2022-09-03T17:38:28;16.70;99.90
34099;DHT22;20374;49.474;10.944;2022-09-03T17:41:26;16.70;99.90
34099;DHT22;20374;49.474;10.944;2022-09-03T17:49:53;16.70;99.90
34099;DHT22;20374;49.474;10.944;2022-09-03T17:56:05;16.60;99.90
34099;DHT22;20374;49.474;10.944;2022-09-03T17:58:53;16.50;99.90
34099;DHT22;20374;49.474;10.944;2022-09-03T18:01:25;16.50;99.90
34099;DHT22;20374;49.474;10.944;2022-09-03T18:04:10;16.50;99.90
34099;DHT22;20374;49.474;10.944;2022-09-03T18:11:58;16.50;99.90
34099;DHT22;20374;49.474;10.944;2022-09-03T18:14:58;16.50;99.90
34099;DHT22;20374;49.474;10.944;2022-09-03T18:17:36;16.50;99.90
34099;DHT22;20374;49.474;10.944;2022-09-03T18:20:09;16.50;99.90
34099;DHT22;20374;49.474;10.944;2022-09-03T18:25:49;16.50;99.90
34099;DHT22;20374;49.474;10.944;2022-09-03T18:31:31;16.60;99.90
34099;DHT22;20374;49.474;10.944;2022-09-03T18:36:48;16.50;99.90
34099;DHT22;20374;49.474;10.944;2022-09-03T18:39:32;16.50;99.90
34099;DHT22;20374;49.474;10.944;2022-09-03T18:42:25;16.40;99.90
34099;DHT22;20374;49.474;10.944;2022-09-03T18:48:55;16.40;99.90
34099;DHT22;20374;49.474;10.944;2022-09-03T18:52:06;16.30;99.90
34099;DHT22;20374;49.474;10.944;2022-09-03T19:01:25;16.30;99.90
34099;DHT22;20374;49.474;10.944;2022-09-03T19:07:22;16.20;99.90
34099;DHT22;20374;49.474;10.944;2022-09-03T19:10:14;16.10;99.90
34099;DHT22;20374;49.474;10.944;2022-09-03T19:16:08;16.00;99.90
34099;DHT22;20374;49.474;10.944;2022-09-03T19:22:11;16.10;99.90
34099;DHT22;20374;49.474;10.944;2022-09-03T19:25:04;16.00;99.90
34099;DHT22;20374;49.474;10.944;2022-09-03T19:47:02;15.90;99.90
34099;DHT22;20374;49.474;10.944;2022-09-03T19:50:07;15.90;99.90
34099;DHT22;20374;49.474;10.944;2022-09-03T19:53:00;15.80;99.90
34099;DHT22;20374;49.474;10.944;2022-09-03T19:55:48;15.80;99.90
34099;DHT22;20374;49.474;10.944;2022-09-03T19:58:39;15.80;99.90
34099;DHT22;20374;49.474;10.944;2022-09-03T20:01:32;15.80;99.90
34099;DHT22;20374;49.474;10.944;2022-09-03T20:04:16;15.70;99.90
34099;DHT22;20374;49.474;10.944;2022-09-03T20:07:05;15.70;99.90
34099;DHT22;20374;49.474;10.944;2022-09-03T20:09:51;15.70;99.90
34099;DHT22;20374;49.474;10.944;2022-09-03T20:12:41;15.60;99.90
34099;DHT22;20374;49.474;10.944;2022-09-03T20:15:10;15.60;99.90
34099;DHT22;20374;49.474;10.944;2022-09-03T20:20:26;15.70;99.90
34099;DHT22;20374;49.474;10.944;2022-09-03T20:23:00;15.70;99.90
34099;DHT22;20374;49.474;10.944;2022-09-03T20:31:08;15.80;99.90
34099;DHT22;20374;49.474;10.944;2022-09-03T20:33:51;15.80;99.90
34099;DHT22;20374;49.474;10.944;2022-09-03T20:39:54;15.70;99.90
34099;DHT22;20374;49.474;10.944;2022-09-03T20:47:35;15.60;99.90
34099;DHT22;20374;49.474;10.944;2022-09-03T20:50:32;15.60;99.90
34099;DHT22;20374;49.474;10.944;2022-09-03T20:53:34;15.60;99.90
34099;DHT22;20374;49.474;10.944;2022-09-03T20:56:26;15.60;99.90
34099;DHT22;20374;49.474;10.944;2022-09-03T21:04:38;15.60;99.90
34099;DHT22;20374;49.474;10.944;2022-09-03T21:10:17;15.70;99.90
34099;DHT22;20374;49.474;10.944;2022-09-03T21:13:04;15.60;99.90
34099;DHT22;20374;49.474;10.944;2022-09-03T21:18:32;15.60;99.90
34099;DHT22;20374;49.474;10.944;2022-09-03T21:24:11;15.60;99.90
34099;DHT22;20374;49.474;10.944;2022-09-03T21:26:40;15.50;99.90
34099;DHT22;20374;49.474;10.944;2022-09-03T21:29:27;15.40;99.90
34099;DHT22;20374;49.474;10.944;2022-09-03T21:32:01;15.40;99.90
34099;DHT22;20374;49.474;10.944;2022-09-03T21:37:17;15.30;99.90
34099;DHT22;20374;49.474;10.944;2022-09-03T21:39:52;15.40;99.90
34099;DHT22;20374;49.474;10.944;2022-09-03T21:45:34;15.30;99.90
34099;DHT22;20374;49.474;10.944;2022-09-03T21:48:14;15.20;99.90
34099;DHT22;20374;49.474;10.944;2022-09-03T21:50:59;15.10;99.90
34099;DHT22;20374;49.474;10.944;2022-09-03T21:53:34;15.00;99.90
34099;DHT22;20374;49.474;10.944;2022-09-03T22:04:06;15.00;99.90
34099;DHT22;20374;49.474;10.944;2022-09-03T22:09:30;15.00;99.90
34099;DHT22;20374;49.474;10.944;2022-09-03T22:14:53;15.00;99.90
34099;DHT22;20374;49.474;10.944;2022-09-03T22:19:52;14.90;99.90
34099;DHT22;20374;49.474;10.944;2022-09-03T22:22:35;14.90;99.90
34099;DHT22;20374;49.474;10.944;2022-09-03T22:27:48;14.90;99.90
34099;DHT22;20374;49.474;10.944;2022-09-03T22:30:18;14.90;99.90
34099;DHT22;20374;49.474;10.944;2022-09-03T22:41:01;15.10;99.90
34099;DHT22;20374;49.474;10.944;2022-09-03T22:46:08;15.00;99.90
34099;DHT22;20374;49.474;10.944;2022-09-03T22:51:50;14.90;99.90
34099;DHT22;20374;49.474;10.944;2022-09-03T22:56:46;15.00;99.90
34099;DHT22;20374;49.474;10.944;2022-09-03T22:59:17;15.00;99.90